Time,TemperatureF,DewpointF,PressureIn,WindDirection,WindDirectionDegrees,WindSpeedMPH,WindSpeedGustMPH,Humidity,HourlyPrecipIn,Conditions,Clouds,dailyrainin,SoftwareType,DateUTC
2013-05-22 00:00:00,74.2,71.4,29.84,SE,142,0.0,0.0,91,0.00,,,0.00,Wunderground v.1.15,2013-05-22 05:00:00,
2013-05-22 00:05:00,74.1,71.3,29.84,SE,142,0.0,0.0,91,0.00,,,0.00,Wunderground v.1.15,2013-05-22 05:05:00,
2013-05-22 00:10:00,74.0,71.2,29.82,SE,141,0.0,0.0,91,0.00,,,0.00,Wunderground v.1.15,2013-05-22 05:10:00,
2013-05-22 00:15:00,73.9,71.1,29.82,SE,140,0.0,0.0,91,0.00,,,0.00,Wunderground v.1.15,2013-05-22 05:15:00,
2013-05-22 00:20:00,73.8,71.0,29.82,SE,141,0.0,0.0,91,0.00,,,0.00,Wunderground v.1.15,2013-05-22 05:20:00,
2013-05-22 00:25:00,73.7,70.9,29.82,SE,141,0.0,0.0,91,0.00,,,0.00,Wunderground v.1.15,2013-05-22 05:25:00,
2013-05-22 00:30:00,73.6,71.1,29.82,SE,141,0.0,0.0,92,0.00,,,0.00,Wunderground v.1.15,2013-05-22 05:30:00,
2013-05-22 00:35:00,73.4,70.9,29.82,SE,141,0.0,0.0,92,0.00,,,0.00,Wunderground v.1.15,2013-05-22 05:35:00,
2013-05-22 00:40:00,73.3,70.8,29.82,SE,141,0.0,0.0,92,0.00,,,0.00,Wunderground v.1.15,2013-05-22 05:40:00,
2013-05-22 00:45:00,73.3,70.8,29.82,SE,145,0.0,0.0,92,0.00,,,0.00,Wunderground v.1.15,2013-05-22 05:45:00,
2013-05-22 00:50:00,73.2,70.7,29.82,SSE,157,0.0,0.0,92,0.00,,,0.00,Wunderground v.1.15,2013-05-22 05:50:00,
2013-05-22 00:55:00,73.2,71.1,29.82,SE,140,0.0,0.0,93,0.00,,,0.00,Wunderground v.1.15,2013-05-22 05:55:00,
2013-05-22 01:00:00,73.1,71.0,29.82,SE,140,0.0,0.0,93,0.00,,,0.00,Wunderground v.1.15,2013-05-22 06:00:00,
2013-05-22 01:05:00,73.0,70.9,29.82,SE,140,0.0,0.0,93,0.00,,,0.00,Wunderground v.1.15,2013-05-22 06:05:00,
2013-05-22 01:10:00,73.0,70.9,29.82,SE,140,0.0,0.0,93,0.00,,,0.00,Wunderground v.1.15,2013-05-22 06:10:00,
2013-05-22 01:15:00,72.9,70.8,29.82,SE,140,0.0,0.0,93,0.00,,,0.00,Wunderground v.1.15,2013-05-22 06:15:00,
2013-05-22 01:20:00,72.8,70.7,29.82,SE,140,0.0,0.0,93,0.00,,,0.00,Wunderground v.1.15,2013-05-22 06:20:00,
2013-05-22 01:25:00,72.8,70.7,29.82,SE,140,0.0,0.0,93,0.00,,,0.00,Wunderground v.1.15,2013-05-22 06:25:00,
2013-05-22 01:30:00,72.7,70.6,29.82,SE,140,0.0,0.0,93,0.00,,,0.00,Wunderground v.1.15,2013-05-22 06:30:00,
2013-05-22 01:35:00,72.6,70.5,29.82,SE,140,0.0,0.0,93,0.00,,,0.00,Wunderground v.1.15,2013-05-22 06:35:00,
2013-05-22 01:40:00,72.5,70.4,29.81,SE,140,0.0,0.0,93,0.00,,,0.00,Wunderground v.1.15,2013-05-22 06:40:00,
2013-05-22 01:45:00,72.5,70.7,29.81,SE,140,0.0,0.0,94,0.00,,,0.00,Wunderground v.1.15,2013-05-22 06:45:00,
2013-05-22 01:50:00,72.4,70.6,29.81,SE,140,0.0,0.0,94,0.00,,,0.00,Wunderground v.1.15,2013-05-22 06:50:00,
2013-05-22 01:55:00,72.3,70.5,29.79,SE,136,0.0,0.0,94,0.00,,,0.00,Wunderground v.1.15,2013-05-22 06:55:00,
2013-05-22 02:00:00,72.3,70.5,29.79,SE,129,0.0,0.0,94,0.00,,,0.00,Wunderground v.1.15,2013-05-22 07:00:00,
2013-05-22 02:05:00,72.2,70.4,29.79,SE,138,0.0,0.0,94,0.00,,,0.00,Wunderground v.1.15,2013-05-22 07:05:00,
2013-05-22 02:10:00,72.2,70.4,29.79,SE,126,0.0,0.0,94,0.00,,,0.00,Wunderground v.1.15,2013-05-22 07:10:00,
2013-05-22 02:15:00,72.2,70.4,29.79,SE,139,0.0,0.0,94,0.00,,,0.00,Wunderground v.1.15,2013-05-22 07:15:00,
2013-05-22 02:20:00,72.1,70.3,29.79,SE,137,0.0,0.0,94,0.00,,,0.00,Wunderground v.1.15,2013-05-22 07:20:00,
2013-05-22 02:25:00,72.1,70.3,29.78,SE,137,0.0,0.0,94,0.00,,,0.00,Wunderground v.1.15,2013-05-22 07:25:00,
2013-05-22 02:30:00,72.1,70.3,29.78,SE,129,0.0,0.0,94,0.00,,,0.00,Wunderground v.1.15,2013-05-22 07:30:00,
2013-05-22 02:35:00,72.1,70.3,29.78,SE,129,0.0,0.0,94,0.00,,,0.00,Wunderground v.1.15,2013-05-22 07:35:00,
2013-05-22 02:40:00,72.1,70.3,29.79,SE,131,0.0,0.0,94,0.00,,,0.00,Wunderground v.1.15,2013-05-22 07:40:00,
2013-05-22 02:45:00,72.1,70.3,29.79,SSE,148,0.0,0.0,94,0.00,,,0.00,Wunderground v.1.15,2013-05-22 07:45:00,
2013-05-22 02:50:00,72.0,70.2,29.79,SSE,148,0.0,0.0,94,0.00,,,0.00,Wunderground v.1.15,2013-05-22 07:50:00,
2013-05-22 02:55:00,72.0,70.2,29.79,SSE,148,0.0,0.0,94,0.00,,,0.00,Wunderground v.1.15,2013-05-22 07:55:00,
2013-05-22 03:00:00,72.0,70.2,29.79,SSE,148,0.0,0.0,94,0.00,,,0.00,Wunderground v.1.15,2013-05-22 08:00:00,
2013-05-22 03:05:00,71.9,70.1,29.79,SSE,148,0.0,0.0,94,0.00,,,0.00,Wunderground v.1.15,2013-05-22 08:05:00,
2013-05-22 03:10:00,71.9,70.1,29.79,SSE,148,0.0,0.0,94,0.00,,,0.00,Wunderground v.1.15,2013-05-22 08:10:00,
2013-05-22 03:15:00,71.9,70.1,29.79,SSE,148,0.0,0.0,94,0.00,,,0.00,Wunderground v.1.15,2013-05-22 08:15:00,
2013-05-22 03:20:00,71.9,70.1,29.79,SSE,148,0.0,0.0,94,0.00,,,0.00,Wunderground v.1.15,2013-05-22 08:20:00,
2013-05-22 03:30:00,71.8,70.0,29.79,SSE,148,0.0,0.0,94,0.00,,,0.00,Wunderground v.1.15,2013-05-22 08:30:00,
2013-05-22 03:35:00,71.8,70.0,29.79,SSE,148,0.0,0.0,94,0.00,,,0.00,Wunderground v.1.15,2013-05-22 08:35:00,
2013-05-22 03:40:00,71.7,69.9,29.80,SSE,148,0.0,0.0,94,0.00,,,0.00,Wunderground v.1.15,2013-05-22 08:40:00,
2013-05-22 03:45:00,71.7,69.9,29.80,SSE,148,0.0,0.0,94,0.00,,,0.00,Wunderground v.1.15,2013-05-22 08:45:00,
2013-05-22 03:50:00,71.7,69.9,29.80,SSE,148,0.0,0.0,94,0.00,,,0.00,Wunderground v.1.15,2013-05-22 08:50:00,
2013-05-22 03:55:00,71.7,69.9,29.81,NE,38,0.0,0.0,94,0.00,,,0.00,Wunderground v.1.15,2013-05-22 08:55:00,
2013-05-22 04:00:00,71.8,70.0,29.81,NE,38,0.0,0.0,94,0.00,,,0.00,Wunderground v.1.15,2013-05-22 09:00:00,
2013-05-22 04:05:00,71.7,70.2,29.81,NE,38,0.0,0.0,95,0.00,,,0.00,Wunderground v.1.15,2013-05-22 09:05:00,
2013-05-22 04:10:00,71.9,70.4,29.81,NE,38,0.0,0.0,95,0.00,,,0.00,Wunderground v.1.15,2013-05-22 09:10:00,
2013-05-22 04:15:00,71.9,70.1,29.81,North,355,0.0,0.0,94,0.00,,,0.00,Wunderground v.1.15,2013-05-22 09:15:00,
2013-05-22 04:20:00,71.3,69.5,29.81,NNE,12,0.0,0.0,94,0.00,,,0.00,Wunderground v.1.15,2013-05-22 09:20:00,
2013-05-22 04:25:00,70.7,67.9,29.82,NNE,17,0.0,0.0,91,0.00,,,0.00,Wunderground v.1.15,2013-05-22 09:25:00,
2013-05-22 04:30:00,70.3,66.6,29.82,NNE,33,0.0,0.0,88,0.00,,,0.00,Wunderground v.1.15,2013-05-22 09:30:00,
2013-05-22 04:35:00,70.0,66.0,29.82,NNE,22,0.0,0.0,87,0.00,,,0.00,Wunderground v.1.15,2013-05-22 09:35:00,
2013-05-22 04:40:00,69.7,65.7,29.82,NNE,16,0.0,0.0,87,0.00,,,0.00,Wunderground v.1.15,2013-05-22 09:40:00,
2013-05-22 04:45:00,69.2,65.2,29.82,NNE,32,0.0,0.0,87,0.00,,,0.00,Wunderground v.1.15,2013-05-22 09:45:00,
2013-05-22 04:50:00,68.6,64.9,29.82,North,11,0.0,0.0,88,0.78,,,0.04,Wunderground v.1.15,2013-05-22 09:50:00,
2013-05-22 04:55:00,68.0,65.0,29.82,NE,42,0.0,0.0,90,0.18,,,0.06,Wunderground v.1.15,2013-05-22 09:55:00,
2013-05-22 05:00:00,67.6,64.9,29.82,NE,38,0.0,0.0,91,0.53,,,0.08,Wunderground v.1.15,2013-05-22 10:00:00,
2013-05-22 05:05:00,67.2,64.8,29.82,NNE,28,0.0,0.0,92,0.20,,,0.10,Wunderground v.1.15,2013-05-22 10:05:00,
2013-05-22 05:10:00,67.0,64.9,29.83,NNE,23,0.0,0.0,93,0.09,,,0.11,Wunderground v.1.15,2013-05-22 10:10:00,
2013-05-22 05:41:00,66.0,64.2,29.82,N/A,-737280,0.0,-999.0,94,0.80,,,1.53,Wunderground v.1.15,2013-05-22 10:41:00,
2013-05-22 05:46:00,66.0,64.5,29.88,N/A,-737280,0.0,-999.0,95,0.80,,,1.53,Wunderground v.1.15,2013-05-22 10:46:00,
2013-05-22 05:51:00,66.0,64.5,29.88,N/A,-737280,0.0,-999.0,95,0.80,,,1.53,Wunderground v.1.15,2013-05-22 10:51:00,
2013-05-22 05:56:00,66.0,64.5,29.88,N/A,-737280,0.0,-999.0,95,0.80,,,1.53,Wunderground v.1.15,2013-05-22 10:56:00,
2013-05-22 06:01:00,66.0,64.5,29.88,N/A,-737280,0.0,-999.0,95,0.80,,,1.53,Wunderground v.1.15,2013-05-22 11:01:00,
2013-05-22 06:06:00,66.0,64.5,29.88,N/A,-737280,0.0,-999.0,95,0.80,,,1.53,Wunderground v.1.15,2013-05-22 11:06:00,
2013-05-22 06:11:00,66.0,64.5,29.88,N/A,-737280,0.0,-999.0,95,0.80,,,1.53,Wunderground v.1.15,2013-05-22 11:11:00,
2013-05-22 06:16:00,65.8,64.3,29.88,N/A,-737280,0.0,-999.0,95,0.44,,,1.53,Wunderground v.1.15,2013-05-22 11:16:00,
2013-05-22 06:21:00,65.8,64.3,29.88,N/A,-737280,0.0,-999.0,95,0.44,,,1.53,Wunderground v.1.15,2013-05-22 11:21:00,
2013-05-22 06:26:00,65.8,64.3,29.88,N/A,-737280,0.0,-999.0,95,0.44,,,1.53,Wunderground v.1.15,2013-05-22 11:26:00,
2013-05-22 06:31:00,65.8,64.3,29.88,N/A,-737280,0.0,-999.0,95,0.44,,,1.53,Wunderground v.1.15,2013-05-22 11:31:00,
2013-05-22 06:36:00,65.8,64.3,29.88,N/A,-737280,0.0,-999.0,95,0.44,,,1.53,Wunderground v.1.15,2013-05-22 11:36:00,
2013-05-22 06:41:00,65.8,64.3,29.88,N/A,-737280,0.0,-999.0,95,0.44,,,1.53,Wunderground v.1.15,2013-05-22 11:41:00,
2013-05-22 06:46:00,65.7,64.2,29.88,N/A,-737280,0.0,-999.0,95,0.38,,,1.53,Wunderground v.1.15,2013-05-22 11:46:00,
2013-05-22 06:51:00,65.7,64.2,29.88,N/A,-737280,0.0,-999.0,95,0.38,,,1.53,Wunderground v.1.15,2013-05-22 11:51:00,
2013-05-22 06:56:00,65.7,64.2,29.88,N/A,-737280,0.0,-999.0,95,0.38,,,1.53,Wunderground v.1.15,2013-05-22 11:56:00,
2013-05-22 07:01:00,65.7,64.2,29.88,N/A,-737280,0.0,-999.0,95,0.38,,,1.53,Wunderground v.1.15,2013-05-22 12:01:00,
2013-05-22 07:06:00,65.7,64.2,29.88,N/A,-737280,0.0,-999.0,95,0.38,,,1.53,Wunderground v.1.15,2013-05-22 12:06:00,
2013-05-22 07:11:00,65.7,64.2,29.88,N/A,-737280,0.0,-999.0,95,0.38,,,1.53,Wunderground v.1.15,2013-05-22 12:11:00,
2013-05-22 07:16:00,65.7,64.5,29.86,N/A,-737280,0.0,-999.0,96,0.17,,,1.53,Wunderground v.1.15,2013-05-22 12:16:00,
2013-05-22 07:21:00,65.7,64.5,29.86,N/A,-737280,0.0,-999.0,96,0.17,,,1.53,Wunderground v.1.15,2013-05-22 12:21:00,
2013-05-22 07:26:00,65.7,64.5,29.86,N/A,-737280,0.0,-999.0,96,0.17,,,1.53,Wunderground v.1.15,2013-05-22 12:26:00,
2013-05-22 07:31:00,65.7,64.5,29.86,N/A,-737280,0.0,-999.0,96,0.17,,,1.53,Wunderground v.1.15,2013-05-22 12:31:00,
2013-05-22 07:36:00,65.7,64.5,29.86,N/A,-737280,0.0,-999.0,96,0.17,,,1.53,Wunderground v.1.15,2013-05-22 12:36:00,
2013-05-22 07:41:00,65.7,64.5,29.86,N/A,-737280,0.0,-999.0,96,0.17,,,1.53,Wunderground v.1.15,2013-05-22 12:41:00,
2013-05-22 07:42:00,65.7,64.5,29.86,N/A,-737280,0.0,-999.0,96,0.17,,,1.53,Wunderground v.1.15,2013-05-22 12:42:00,
2013-05-22 07:46:00,65.5,64.0,29.83,N/A,-737280,0.0,-999.0,95,0.17,,,1.53,Wunderground v.1.15,2013-05-22 12:46:00,
2013-05-22 07:47:00,65.5,64.0,29.83,N/A,-737280,0.0,-999.0,95,0.17,,,1.53,Wunderground v.1.15,2013-05-22 12:47:00,
2013-05-22 07:51:00,65.5,64.0,29.83,N/A,-737280,0.0,-999.0,95,0.17,,,1.53,Wunderground v.1.15,2013-05-22 12:51:00,
2013-05-22 07:52:00,65.5,64.0,29.83,N/A,-737280,0.0,-999.0,95,0.17,,,1.53,Wunderground v.1.15,2013-05-22 12:52:00,
2013-05-22 07:56:00,65.5,64.0,29.83,N/A,-737280,0.0,-999.0,95,0.17,,,1.53,Wunderground v.1.15,2013-05-22 12:56:00,
2013-05-22 07:57:00,65.5,64.0,29.83,N/A,-737280,0.0,-999.0,95,0.17,,,1.53,Wunderground v.1.15,2013-05-22 12:57:00,
2013-05-22 08:40:00,65.4,64.2,29.83,NNE,30,0.0,0.0,96,0.24,,,1.58,Wunderground v.1.15,2013-05-22 13:40:00,
2013-05-22 08:45:00,65.4,64.2,29.83,NE,53,0.0,0.0,96,0.08,,,1.58,Wunderground v.1.15,2013-05-22 13:45:00,
2013-05-22 08:50:00,65.4,64.2,29.83,ESE,107,0.0,0.0,96,0.07,,,1.59,Wunderground v.1.15,2013-05-22 13:50:00,
2013-05-22 09:00:00,65.3,64.1,29.82,NW,324,0.0,0.0,96,0.04,,,1.59,Wunderground v.1.15,2013-05-22 14:00:00,
2013-05-22 09:05:00,65.3,64.1,29.82,SSE,161,0.0,0.0,96,0.00,,,1.60,Wunderground v.1.15,2013-05-22 14:05:00,
2013-05-22 09:10:00,65.4,64.2,29.82,SSE,153,0.0,0.0,96,0.00,,,1.60,Wunderground v.1.15,2013-05-22 14:10:00,
2013-05-22 09:15:00,65.4,64.2,29.82,ESE,123,0.0,0.0,96,0.00,,,1.60,Wunderground v.1.15,2013-05-22 14:15:00,
2013-05-22 09:20:00,65.4,64.2,29.82,NE,34,0.0,0.0,96,0.00,,,1.60,Wunderground v.1.15,2013-05-22 14:20:00,
2013-05-22 09:30:00,65.6,64.4,29.82,SE,130,0.0,0.0,96,0.00,,,1.60,Wunderground v.1.15,2013-05-22 14:30:00,
2013-05-22 09:35:00,65.6,64.4,29.82,South,188,0.0,0.0,96,0.00,,,1.60,Wunderground v.1.15,2013-05-22 14:35:00,
2013-05-22 09:40:00,65.6,64.4,29.83,ESE,122,0.0,0.0,96,0.00,,,1.60,Wunderground v.1.15,2013-05-22 14:40:00,
2013-05-22 09:45:00,65.7,64.5,29.83,SSE,152,0.0,0.0,96,0.00,,,1.60,Wunderground v.1.15,2013-05-22 14:45:00,
2013-05-22 09:50:00,65.8,64.6,29.83,SE,136,0.0,0.0,96,0.00,,,1.60,Wunderground v.1.15,2013-05-22 14:50:00,
2013-05-22 09:55:00,65.8,64.6,29.82,SE,126,0.0,0.0,96,0.00,,,1.60,Wunderground v.1.15,2013-05-22 14:55:00,
2013-05-22 10:00:00,65.8,64.6,29.82,SSE,150,0.0,0.0,96,0.00,,,1.60,Wunderground v.1.15,2013-05-22 15:00:00,
2013-05-22 10:05:00,65.9,64.7,29.82,SSE,150,0.0,0.0,96,0.00,,,1.60,Wunderground v.1.15,2013-05-22 15:05:00,
2013-05-22 10:10:00,66.0,64.8,29.83,SE,130,0.0,0.0,96,0.00,,,1.60,Wunderground v.1.15,2013-05-22 15:10:00,
2013-05-22 10:15:00,66.0,64.8,29.83,SE,142,0.0,0.0,96,0.00,,,1.60,Wunderground v.1.15,2013-05-22 15:15:00,
2013-05-22 10:20:00,66.1,64.9,29.83,SE,137,0.0,0.0,96,0.00,,,1.60,Wunderground v.1.15,2013-05-22 15:20:00,
2013-05-22 10:25:00,66.2,65.0,29.84,SE,135,0.0,0.0,96,0.00,,,1.60,Wunderground v.1.15,2013-05-22 15:25:00,
2013-05-22 10:30:00,66.3,65.1,29.84,SE,145,0.0,0.0,96,0.00,,,1.60,Wunderground v.1.15,2013-05-22 15:30:00,
2013-05-22 10:35:00,66.6,65.4,29.84,SE,134,0.0,0.0,96,0.00,,,1.60,Wunderground v.1.15,2013-05-22 15:35:00,
2013-05-22 10:40:00,66.7,65.5,29.85,SE,138,0.0,0.0,96,0.00,,,1.60,Wunderground v.1.15,2013-05-22 15:40:00,
2013-05-22 10:45:00,67.1,65.9,29.85,SE,140,0.0,0.0,96,0.00,,,1.60,Wunderground v.1.15,2013-05-22 15:45:00,
2013-05-22 10:50:00,67.6,66.4,29.85,SE,134,0.0,0.0,96,0.00,,,1.60,Wunderground v.1.15,2013-05-22 15:50:00,
2013-05-22 10:55:00,68.1,66.6,29.84,SE,142,0.0,0.0,95,0.00,,,1.60,Wunderground v.1.15,2013-05-22 15:55:00,
2013-05-22 11:00:00,68.3,66.8,29.84,SSE,156,0.0,0.0,95,0.00,,,1.60,Wunderground v.1.15,2013-05-22 16:00:00,
2013-05-22 11:05:00,68.6,66.8,29.84,ENE,59,0.0,0.0,94,0.00,,,1.60,Wunderground v.1.15,2013-05-22 16:05:00,
2013-05-22 11:15:00,68.5,66.1,29.84,WSW,250,0.0,0.0,92,0.00,,,1.60,Wunderground v.1.15,2013-05-22 16:15:00,
2013-05-22 11:20:00,68.6,66.2,29.84,WSW,250,0.0,0.0,92,0.00,,,1.60,Wunderground v.1.15,2013-05-22 16:20:00,
2013-05-22 11:25:00,68.5,66.1,29.87,WSW,250,0.0,0.0,92,0.00,,,1.60,Wunderground v.1.15,2013-05-22 16:25:00,
2013-05-22 11:30:00,68.7,66.6,29.87,WSW,250,0.0,0.0,93,0.00,,,1.60,Wunderground v.1.15,2013-05-22 16:30:00,
2013-05-22 11:35:00,69.0,67.2,29.87,WSW,250,0.0,0.0,94,0.00,,,1.60,Wunderground v.1.15,2013-05-22 16:35:00,
2013-05-22 11:40:00,69.3,67.5,29.86,WSW,249,0.0,0.0,94,0.00,,,1.60,Wunderground v.1.15,2013-05-22 16:40:00,
2013-05-22 11:45:00,69.3,67.2,29.86,WSW,249,0.0,0.0,93,0.00,,,1.60,Wunderground v.1.15,2013-05-22 16:45:00,
2013-05-22 11:50:00,69.5,67.1,29.86,SE,134,0.0,0.0,92,0.00,,,1.60,Wunderground v.1.15,2013-05-22 16:50:00,
2013-05-22 11:55:00,69.8,67.4,29.86,SE,138,0.0,0.0,92,0.00,,,1.60,Wunderground v.1.15,2013-05-22 16:55:00,
2013-05-22 12:00:00,70.2,67.4,29.86,SE,146,0.0,0.0,91,0.00,,,1.60,Wunderground v.1.15,2013-05-22 17:00:00,
2013-05-22 12:05:00,70.6,67.2,29.86,SE,128,0.0,0.0,89,0.00,,,1.60,Wunderground v.1.15,2013-05-22 17:05:00,
2013-05-22 12:10:00,70.8,67.1,29.86,SE,136,0.0,0.0,88,0.00,,,1.60,Wunderground v.1.15,2013-05-22 17:10:00,
2013-05-22 12:20:00,71.1,67.4,29.86,SE,124,0.0,0.0,88,0.00,,,1.60,Wunderground v.1.15,2013-05-22 17:20:00,
2013-05-22 12:25:00,71.4,68.0,29.86,SE,126,0.0,0.0,89,0.00,,,1.60,Wunderground v.1.15,2013-05-22 17:25:00,
2013-05-22 12:30:00,71.5,67.8,29.86,SE,128,0.0,0.0,88,0.00,,,1.60,Wunderground v.1.15,2013-05-22 17:30:00,
2013-05-22 12:35:00,71.5,68.1,29.86,SE,129,0.0,0.0,89,0.00,,,1.60,Wunderground v.1.15,2013-05-22 17:35:00,
2013-05-22 12:40:00,71.5,67.4,29.85,SW,229,0.0,0.0,87,0.00,,,1.60,Wunderground v.1.15,2013-05-22 17:40:00,
2013-05-22 12:45:00,71.5,67.8,29.85,SW,229,0.0,0.0,88,0.00,,,1.60,Wunderground v.1.15,2013-05-22 17:45:00,
2013-05-22 12:50:00,71.6,67.9,29.85,SW,234,0.0,0.0,88,0.00,,,1.60,Wunderground v.1.15,2013-05-22 17:50:00,
2013-05-22 12:55:00,71.5,67.4,29.85,WSW,257,0.0,0.0,87,0.00,,,1.60,Wunderground v.1.15,2013-05-22 17:55:00,
2013-05-22 13:00:00,71.7,68.0,29.85,WSW,257,0.0,0.0,88,0.00,,,1.60,Wunderground v.1.15,2013-05-22 18:00:00,
2013-05-22 13:10:00,72.0,67.6,29.84,WNW,298,0.0,0.0,86,0.00,,,1.60,Wunderground v.1.15,2013-05-22 18:10:00,
2013-05-22 13:15:00,72.1,68.0,29.84,WNW,298,0.0,0.0,87,0.00,,,1.60,Wunderground v.1.15,2013-05-22 18:15:00,
2013-05-22 13:20:00,72.2,67.8,29.84,WNW,288,0.0,0.0,86,0.00,,,1.60,Wunderground v.1.15,2013-05-22 18:20:00,
2013-05-22 13:25:00,72.3,68.2,29.84,West,277,0.0,0.0,87,0.00,,,1.60,Wunderground v.1.15,2013-05-22 18:25:00,
2013-05-22 13:30:00,72.3,68.2,29.84,West,276,0.0,0.0,87,0.00,,,1.60,Wunderground v.1.15,2013-05-22 18:30:00,
2013-05-22 13:35:00,72.6,68.5,29.84,West,278,0.0,0.0,87,0.00,,,1.60,Wunderground v.1.15,2013-05-22 18:35:00,
2013-05-22 13:40:00,72.7,68.3,29.84,SSE,156,0.0,0.0,86,0.00,,,1.60,Wunderground v.1.15,2013-05-22 18:40:00,
2013-05-22 13:45:00,72.6,67.5,29.84,SSW,211,0.0,0.0,84,0.00,,,1.60,Wunderground v.1.15,2013-05-22 18:45:00,
2013-05-22 13:50:00,72.5,67.7,29.84,WNW,282,0.0,0.0,85,0.00,,,1.60,Wunderground v.1.15,2013-05-22 18:50:00,
2013-05-22 14:00:00,71.9,67.5,29.84,West,279,0.0,0.0,86,0.00,,,1.60,Wunderground v.1.15,2013-05-22 19:00:00,
2013-05-22 14:05:00,71.5,67.4,29.84,West,279,0.0,0.0,87,0.00,,,1.60,Wunderground v.1.15,2013-05-22 19:05:00,
2013-05-22 14:10:00,71.3,67.2,29.84,West,270,0.0,0.0,87,0.00,,,1.60,Wunderground v.1.15,2013-05-22 19:10:00,
2013-05-22 14:15:00,71.7,67.6,29.84,West,267,0.0,0.0,87,0.00,,,1.60,Wunderground v.1.15,2013-05-22 19:15:00,
2013-05-22 14:20:00,72.2,67.8,29.84,West,277,0.0,0.0,86,0.00,,,1.60,Wunderground v.1.15,2013-05-22 19:20:00,
2013-05-22 14:25:00,72.6,67.5,29.84,SW,225,0.0,0.0,84,0.00,,,1.60,Wunderground v.1.15,2013-05-22 19:25:00,
2013-05-22 14:30:00,73.1,67.6,29.84,West,261,0.0,0.0,83,0.00,,,1.60,Wunderground v.1.15,2013-05-22 19:30:00,
2013-05-22 14:35:00,73.6,68.8,29.84,West,260,0.0,0.0,85,0.00,,,1.60,Wunderground v.1.15,2013-05-22 19:35:00,
2013-05-22 14:40:00,74.3,68.4,29.83,SW,217,0.0,0.0,82,0.00,,,1.60,Wunderground v.1.15,2013-05-22 19:40:00,
2013-05-22 14:45:00,74.8,68.6,29.83,SSW,199,0.0,0.0,81,0.00,,,1.60,Wunderground v.1.15,2013-05-22 19:45:00,
2013-05-22 14:50:00,75.4,68.8,29.83,East,96,0.0,0.0,80,0.00,,,1.60,Wunderground v.1.15,2013-05-22 19:50:00,
2013-05-22 14:55:00,75.8,68.4,29.83,SSW,211,0.0,0.0,78,0.00,,,1.60,Wunderground v.1.15,2013-05-22 19:55:00,
2013-05-22 15:00:00,75.9,68.9,29.83,SSW,210,0.0,0.0,79,0.00,,,1.60,Wunderground v.1.15,2013-05-22 20:00:00,
2013-05-22 15:05:00,76.0,69.0,29.83,SSW,202,0.0,0.0,79,0.00,,,1.60,Wunderground v.1.15,2013-05-22 20:05:00,
2013-05-22 15:10:00,76.2,69.2,29.82,SW,217,0.0,0.0,79,0.00,,,1.60,Wunderground v.1.15,2013-05-22 20:10:00,
2013-05-22 15:15:00,76.7,70.1,29.82,SSE,150,0.0,0.0,80,0.00,,,1.60,Wunderground v.1.15,2013-05-22 20:15:00,
2013-05-22 15:20:00,77.2,69.4,29.82,SSE,151,0.0,0.0,77,0.00,,,1.60,Wunderground v.1.15,2013-05-22 20:20:00,
2013-05-22 15:25:00,77.7,68.0,29.82,WNW,283,0.0,0.0,72,0.00,,,1.60,Wunderground v.1.15,2013-05-22 20:25:00,
2013-05-22 15:30:00,78.4,69.0,29.82,SE,138,0.0,0.0,73,0.00,,,1.60,Wunderground v.1.15,2013-05-22 20:30:00,
2013-05-22 15:35:00,78.9,68.7,29.82,SW,226,0.0,0.0,71,0.00,,,1.60,Wunderground v.1.15,2013-05-22 20:35:00,
2013-05-22 15:40:00,79.3,68.2,29.82,WSW,240,0.0,0.0,69,0.00,,,1.60,Wunderground v.1.15,2013-05-22 20:40:00,
2013-05-22 15:45:00,80.1,69.0,29.82,SSE,159,0.0,0.0,69,0.00,,,1.60,Wunderground v.1.15,2013-05-22 20:45:00,
2013-05-22 15:50:00,80.6,69.9,29.82,SW,233,0.0,0.0,70,0.00,,,1.60,Wunderground v.1.15,2013-05-22 20:50:00,
2013-05-22 15:55:00,81.1,70.4,29.81,SE,136,0.0,0.0,70,0.00,,,1.60,Wunderground v.1.15,2013-05-22 20:55:00,
2013-05-22 16:00:00,81.5,70.3,29.81,SE,126,0.0,0.0,69,0.00,,,1.60,Wunderground v.1.15,2013-05-22 21:00:00,
2013-05-22 16:05:00,82.0,70.4,29.81,SSE,153,0.0,0.0,68,0.00,,,1.60,Wunderground v.1.15,2013-05-22 21:05:00,
2013-05-22 16:10:00,81.7,70.1,29.81,SE,130,0.0,0.0,68,0.00,,,1.60,Wunderground v.1.15,2013-05-22 21:10:00,
2013-05-22 16:15:00,81.7,71.0,29.81,SW,232,0.0,0.0,70,0.00,,,1.60,Wunderground v.1.15,2013-05-22 21:15:00,
2013-05-22 16:20:00,81.8,69.8,29.81,SSE,148,0.0,0.0,67,0.00,,,1.60,Wunderground v.1.15,2013-05-22 21:20:00,
2013-05-22 16:25:00,81.7,69.7,29.81,ESE,117,0.0,0.0,67,0.00,,,1.60,Wunderground v.1.15,2013-05-22 21:25:00,
2013-05-22 16:30:00,81.2,69.2,29.81,SE,144,0.0,0.0,67,0.00,,,1.60,Wunderground v.1.15,2013-05-22 21:30:00,
2013-05-22 16:35:00,80.5,70.2,29.81,ESE,105,0.0,0.0,71,0.00,,,1.60,Wunderground v.1.15,2013-05-22 21:35:00,
2013-05-22 16:40:00,80.2,70.4,29.81,SE,132,0.0,0.0,72,0.00,,,1.60,Wunderground v.1.15,2013-05-22 21:40:00,
2013-05-22 16:45:00,80.4,70.9,29.81,South,182,0.0,0.0,73,0.00,,,1.60,Wunderground v.1.15,2013-05-22 21:45:00,
2013-05-22 16:50:00,80.5,71.0,29.81,East,98,0.0,0.0,73,0.00,,,1.60,Wunderground v.1.15,2013-05-22 21:50:00,
2013-05-22 16:55:00,81.0,70.3,29.81,WSW,256,0.0,0.0,70,0.00,,,1.60,Wunderground v.1.15,2013-05-22 21:55:00,
2013-05-22 17:00:00,81.1,70.4,29.81,South,179,0.0,0.0,70,0.00,,,1.60,Wunderground v.1.15,2013-05-22 22:00:00,
2013-05-22 17:05:00,81.2,70.5,29.81,SSE,167,0.0,0.0,70,0.00,,,1.60,Wunderground v.1.15,2013-05-22 22:05:00,
2013-05-22 17:10:00,81.2,70.5,29.81,SSE,155,0.0,0.0,70,0.00,,,1.60,Wunderground v.1.15,2013-05-22 22:10:00,
2013-05-22 17:15:00,81.4,70.7,29.81,SE,126,0.0,0.0,70,0.00,,,1.60,Wunderground v.1.15,2013-05-22 22:15:00,
2013-05-22 17:20:00,81.6,70.4,29.81,South,172,0.0,0.0,69,0.00,,,1.60,Wunderground v.1.15,2013-05-22 22:20:00,
2013-05-22 17:30:00,81.1,70.8,29.81,SW,235,0.0,0.0,71,0.00,,,1.60,Wunderground v.1.15,2013-05-22 22:30:00,
2013-05-22 17:35:00,80.4,70.9,29.81,ESE,110,0.0,0.0,73,0.00,,,1.60,Wunderground v.1.15,2013-05-22 22:35:00,
2013-05-22 17:40:00,79.9,70.5,29.81,ESE,110,0.0,0.0,73,0.00,,,1.60,Wunderground v.1.15,2013-05-22 22:40:00,
2013-05-22 17:45:00,79.5,70.9,29.81,ESE,110,0.0,0.0,75,0.00,,,1.60,Wunderground v.1.15,2013-05-22 22:45:00,
2013-05-22 17:50:00,79.3,70.7,29.81,SE,137,0.0,0.0,75,0.00,,,1.60,Wunderground v.1.15,2013-05-22 22:50:00,
2013-05-22 17:55:00,79.2,70.6,29.81,SW,236,0.0,0.0,75,0.00,,,1.60,Wunderground v.1.15,2013-05-22 22:55:00,
2013-05-22 18:00:00,79.3,70.3,29.81,SE,125,0.0,0.0,74,0.00,,,1.60,Wunderground v.1.15,2013-05-22 23:00:00,
2013-05-22 18:05:00,79.3,70.3,29.81,ESE,102,0.0,0.0,74,0.00,,,1.60,Wunderground v.1.15,2013-05-22 23:05:00,
2013-05-22 18:10:00,79.1,70.1,29.81,WSW,254,0.0,0.0,74,0.00,,,1.60,Wunderground v.1.15,2013-05-22 23:10:00,
2013-05-22 18:15:00,78.8,71.0,29.81,WSW,254,0.0,0.0,77,0.00,,,1.60,Wunderground v.1.15,2013-05-22 23:15:00,
2013-05-22 18:20:00,78.5,70.3,29.81,SE,141,0.0,0.0,76,0.00,,,1.60,Wunderground v.1.15,2013-05-22 23:20:00,
2013-05-22 18:25:00,78.4,70.2,29.81,SSE,156,0.0,0.0,76,0.00,,,1.60,Wunderground v.1.15,2013-05-22 23:25:00,
2013-05-22 18:30:00,78.3,70.5,29.81,SSE,156,0.0,0.0,77,0.00,,,1.60,Wunderground v.1.15,2013-05-22 23:30:00,
2013-05-22 18:35:00,78.0,70.6,29.81,SW,223,0.0,0.0,78,0.00,,,1.60,Wunderground v.1.15,2013-05-22 23:35:00,
2013-05-22 18:40:00,77.8,70.8,29.81,SE,140,0.0,0.0,79,0.00,,,1.60,Wunderground v.1.15,2013-05-22 23:40:00,
2013-05-22 18:45:00,77.6,70.9,29.81,SE,140,0.0,0.0,80,0.00,,,1.60,Wunderground v.1.15,2013-05-22 23:45:00,
2013-05-22 18:50:00,77.5,70.5,29.81,South,169,0.0,0.0,79,0.00,,,1.60,Wunderground v.1.15,2013-05-22 23:50:00,
2013-05-22 18:55:00,77.3,70.3,29.81,South,169,0.0,0.0,79,0.00,,,1.60,Wunderground v.1.15,2013-05-22 23:55:00,
2013-05-22 19:00:00,77.0,70.0,29.81,South,169,0.0,0.0,79,0.00,,,1.60,Wunderground v.1.15,2013-05-23 00:00:00,
2013-05-22 19:05:00,76.9,70.3,29.81,South,169,0.0,0.0,80,0.00,,,1.60,Wunderground v.1.15,2013-05-23 00:05:00,
2013-05-22 19:10:00,76.8,70.5,29.81,South,169,0.0,0.0,81,0.00,,,1.60,Wunderground v.1.15,2013-05-23 00:10:00,
2013-05-22 19:15:00,76.6,70.7,29.81,South,169,0.0,0.0,82,0.00,,,1.60,Wunderground v.1.15,2013-05-23 00:15:00,
2013-05-22 19:20:00,76.5,70.6,29.81,South,169,0.0,0.0,82,0.00,,,1.60,Wunderground v.1.15,2013-05-23 00:20:00,
2013-05-22 19:30:00,75.9,70.4,29.81,South,169,0.0,0.0,83,0.00,,,1.60,Wunderground v.1.15,2013-05-23 00:30:00,
2013-05-22 19:35:00,75.7,70.2,29.81,South,169,0.0,0.0,83,0.00,,,1.60,Wunderground v.1.15,2013-05-23 00:35:00,
2013-05-22 19:40:00,75.4,70.2,29.82,South,169,0.0,0.0,84,0.00,,,1.60,Wunderground v.1.15,2013-05-23 00:40:00,
2013-05-22 19:45:00,75.2,70.0,29.82,South,169,0.0,0.0,84,0.00,,,1.60,Wunderground v.1.15,2013-05-23 00:45:00,
2013-05-22 19:50:00,75.0,69.8,29.82,South,169,0.0,0.0,84,0.00,,,1.60,Wunderground v.1.15,2013-05-23 00:50:00,
2013-05-22 19:55:00,74.8,69.6,29.82,South,169,0.0,0.0,84,0.00,,,1.60,Wunderground v.1.15,2013-05-23 00:55:00,
2013-05-22 20:00:00,74.5,69.7,29.82,South,169,0.0,0.0,85,0.00,,,1.60,Wunderground v.1.15,2013-05-23 01:00:00,
2013-05-22 20:05:00,74.2,69.4,29.82,South,169,0.0,0.0,85,0.00,,,1.60,Wunderground v.1.15,2013-05-23 01:05:00,
2013-05-22 20:10:00,74.0,69.2,29.83,South,169,0.0,0.0,85,0.00,,,1.60,Wunderground v.1.15,2013-05-23 01:10:00,
2013-05-22 20:15:00,73.8,69.0,29.83,South,169,0.0,0.0,85,0.00,,,1.60,Wunderground v.1.15,2013-05-23 01:15:00,
2013-05-22 20:20:00,73.6,69.2,29.83,South,169,0.0,0.0,86,0.00,,,1.60,Wunderground v.1.15,2013-05-23 01:20:00,
2013-05-22 20:25:00,73.3,69.2,29.83,South,169,0.0,0.0,87,0.00,,,1.60,Wunderground v.1.15,2013-05-23 01:25:00,
2013-05-22 20:30:00,73.1,69.0,29.83,South,169,0.0,0.0,87,0.00,,,1.60,Wunderground v.1.15,2013-05-23 01:30:00,
2013-05-22 20:40:00,72.4,69.0,29.83,South,169,0.0,0.0,89,0.00,,,1.60,Wunderground v.1.15,2013-05-23 01:40:00,
2013-05-22 20:45:00,72.1,68.7,29.83,South,169,0.0,0.0,89,0.00,,,1.60,Wunderground v.1.15,2013-05-23 01:45:00,
2013-05-22 20:50:00,71.8,68.7,29.83,South,169,0.0,0.0,90,0.00,,,1.60,Wunderground v.1.15,2013-05-23 01:50:00,
2013-05-22 20:55:00,71.6,68.5,29.83,South,169,0.0,0.0,90,0.00,,,1.60,Wunderground v.1.15,2013-05-23 01:55:00,
2013-05-22 21:00:00,71.4,68.3,29.83,South,169,0.0,0.0,90,0.00,,,1.60,Wunderground v.1.15,2013-05-23 02:00:00,
2013-05-22 21:10:00,71.0,68.2,29.84,South,169,0.0,0.0,91,0.00,,,1.60,Wunderground v.1.15,2013-05-23 02:10:00,
2013-05-22 21:15:00,70.8,68.0,29.84,South,169,0.0,0.0,91,0.00,,,1.60,Wunderground v.1.15,2013-05-23 02:15:00,
2013-05-22 21:20:00,70.6,68.2,29.84,South,169,0.0,0.0,92,0.00,,,1.60,Wunderground v.1.15,2013-05-23 02:20:00,
2013-05-22 21:25:00,70.5,68.1,29.84,South,169,0.0,0.0,92,0.00,,,1.60,Wunderground v.1.15,2013-05-23 02:25:00,
2013-05-22 21:30:00,70.4,68.0,29.84,South,169,0.0,0.0,92,0.00,,,1.60,Wunderground v.1.15,2013-05-23 02:30:00,
2013-05-22 21:35:00,70.3,67.9,29.84,South,169,0.0,0.0,92,0.00,,,1.60,Wunderground v.1.15,2013-05-23 02:35:00,
2013-05-22 21:40:00,70.1,67.7,29.85,South,169,0.0,0.0,92,0.00,,,1.60,Wunderground v.1.15,2013-05-23 02:40:00,
2013-05-22 21:45:00,70.0,67.9,29.85,South,169,0.0,0.0,93,0.00,,,1.60,Wunderground v.1.15,2013-05-23 02:45:00,
2013-05-22 21:50:00,69.9,67.8,29.85,South,169,0.0,0.0,93,0.00,,,1.60,Wunderground v.1.15,2013-05-23 02:50:00,
2013-05-22 21:55:00,69.8,67.7,29.85,South,169,0.0,0.0,93,0.00,,,1.60,Wunderground v.1.15,2013-05-23 02:55:00,
2013-05-22 22:00:00,69.7,67.6,29.85,South,169,0.0,0.0,93,0.00,,,1.60,Wunderground v.1.15,2013-05-23 03:00:00,
2013-05-22 22:05:00,69.6,67.5,29.85,South,169,0.0,0.0,93,0.00,,,1.60,Wunderground v.1.15,2013-05-23 03:05:00,
2013-05-22 22:10:00,69.5,67.4,29.86,South,169,0.0,0.0,93,0.00,,,1.60,Wunderground v.1.15,2013-05-23 03:10:00,
2013-05-22 22:15:00,69.4,67.3,29.86,South,169,0.0,0.0,93,0.00,,,1.60,Wunderground v.1.15,2013-05-23 03:15:00,
2013-05-22 22:20:00,69.4,67.6,29.86,South,169,0.0,0.0,94,0.00,,,1.60,Wunderground v.1.15,2013-05-23 03:20:00,
2013-05-22 22:25:00,69.3,67.5,29.86,South,169,0.0,0.0,94,0.00,,,1.60,Wunderground v.1.15,2013-05-23 03:25:00,
2013-05-22 22:30:00,69.2,67.1,29.86,South,169,0.0,0.0,93,0.00,,,1.60,Wunderground v.1.15,2013-05-23 03:30:00,
2013-05-22 22:35:00,69.2,67.4,29.86,South,169,0.0,0.0,94,0.00,,,1.60,Wunderground v.1.15,2013-05-23 03:35:00,
2013-05-22 22:40:00,69.2,67.4,29.86,South,169,0.0,0.0,94,0.00,,,1.60,Wunderground v.1.15,2013-05-23 03:40:00,
2013-05-22 22:45:00,69.1,67.3,29.86,South,169,0.0,0.0,94,0.00,,,1.60,Wunderground v.1.15,2013-05-23 03:45:00,
2013-05-22 22:50:00,69.0,67.2,29.86,South,169,0.0,0.0,94,0.00,,,1.60,Wunderground v.1.15,2013-05-23 03:50:00,
2013-05-22 22:55:00,68.9,67.1,29.86,South,169,0.0,0.0,94,0.00,,,1.60,Wunderground v.1.15,2013-05-23 03:55:00,
2013-05-22 23:00:00,68.8,67.0,29.86,South,169,0.0,0.0,94,0.00,,,1.60,Wunderground v.1.15,2013-05-23 04:00:00,
2013-05-22 23:05:00,68.8,67.0,29.86,South,169,0.0,0.0,94,0.00,,,1.60,Wunderground v.1.15,2013-05-23 04:05:00,
2013-05-22 23:10:00,68.8,67.0,29.87,South,169,0.0,0.0,94,0.00,,,1.60,Wunderground v.1.15,2013-05-23 04:10:00,
2013-05-22 23:15:00,68.7,66.9,29.87,South,169,0.0,0.0,94,0.00,,,1.60,Wunderground v.1.15,2013-05-23 04:15:00,
2013-05-22 23:20:00,68.6,66.8,29.87,South,169,0.0,0.0,94,0.00,,,1.60,Wunderground v.1.15,2013-05-23 04:20:00,
2013-05-22 23:25:00,68.6,66.8,29.86,South,169,0.0,0.0,94,0.00,,,1.60,Wunderground v.1.15,2013-05-23 04:25:00,
2013-05-22 23:30:00,68.6,66.8,29.86,South,169,0.0,0.0,94,0.00,,,1.60,Wunderground v.1.15,2013-05-23 04:30:00,
2013-05-22 23:35:00,68.6,66.8,29.86,South,169,0.0,0.0,94,0.00,,,1.60,Wunderground v.1.15,2013-05-23 04:35:00,
2013-05-22 23:40:00,68.6,66.8,29.86,South,169,0.0,0.0,94,0.00,,,1.60,Wunderground v.1.15,2013-05-23 04:40:00,
2013-05-22 23:45:00,68.6,66.8,29.86,South,169,0.0,0.0,94,0.00,,,1.60,Wunderground v.1.15,2013-05-23 04:45:00,
2013-05-22 23:50:00,68.7,67.2,29.86,South,169,0.0,0.0,95,0.00,,,1.60,Wunderground v.1.15,2013-05-23 04:50:00,
2013-05-22 23:55:00,68.6,66.8,29.86,South,169,0.0,0.0,94,0.00,,,1.60,Wunderground v.1.15,2013-05-23 04:55:00,